sensor_id;sensor_type;location;lat;lon;timestamp;temperature;humidity
48876;DHT22;34689;51.644;5.618;2022-08-25T00:00:43;24.90;82.30
48876;DHT22;34689;51.644;5.618;2022-08-25T00:03:10;24.90;82.50
48876;DHT22;34689;51.644;5.618;2022-08-25T00:05:36;24.90;82.50
48876;DHT22;34689;51.644;5.618;2022-08-25T00:08:03;24.90;82.50
48876;DHT22;34689;51.644;5.618;2022-08-25T00:10:32;24.90;82.60
48876;DHT22;34689;51.644;5.618;2022-08-25T00:12:59;24.80;82.60
48876;DHT22;34689;51.644;5.618;2022-08-25T00:15:25;24.90;82.70
48876;DHT22;34689;51.644;5.618;2022-08-25T00:17:50;24.80;82.80
48876;DHT22;34689;51.644;5.618;2022-08-25T00:20:16;24.80;82.80
48876;DHT22;34689;51.644;5.618;2022-08-25T00:22:42;24.80;82.80
48876;DHT22;34689;51.644;5.618;2022-08-25T00:25:08;24.80;82.80
48876;DHT22;34689;51.644;5.618;2022-08-25T00:27:34;24.70;82.80
48876;DHT22;34689;51.644;5.618;2022-08-25T00:30:00;24.70;82.80
48876;DHT22;34689;51.644;5.618;2022-08-25T00:32:25;24.70;82.80
48876;DHT22;34689;51.644;5.618;2022-08-25T00:34:52;24.70;82.80
48876;DHT22;34689;51.644;5.618;2022-08-25T00:37:18;24.70;82.70
48876;DHT22;34689;51.644;5.618;2022-08-25T00:39:45;24.70;82.70
48876;DHT22;34689;51.644;5.618;2022-08-25T00:42:11;24.70;82.60
48876;DHT22;34689;51.644;5.618;2022-08-25T00:44:38;24.60;82.50
48876;DHT22;34689;51.644;5.618;2022-08-25T00:47:06;24.60;82.50
48876;DHT22;34689;51.644;5.618;2022-08-25T00:49:51;24.60;82.50
48876;DHT22;34689;51.644;5.618;2022-08-25T00:52:27;24.60;82.30
48876;DHT22;34689;51.644;5.618;2022-08-25T00:57:33;24.50;82.00
48876;DHT22;34689;51.644;5.618;2022-08-25T01:00:08;24.50;82.10
48876;DHT22;34689;51.644;5.618;2022-08-25T01:02:35;24.50;82.10
48876;DHT22;34689;51.644;5.618;2022-08-25T01:05:02;24.40;82.00
48876;DHT22;34689;51.644;5.618;2022-08-25T01:07:27;24.40;82.10
48876;DHT22;34689;51.644;5.618;2022-08-25T01:09:53;24.40;82.10
48876;DHT22;34689;51.644;5.618;2022-08-25T01:12:20;24.30;82.00
48876;DHT22;34689;51.644;5.618;2022-08-25T01:14:47;24.30;82.00
48876;DHT22;34689;51.644;5.618;2022-08-25T01:17:14;24.30;82.00
48876;DHT22;34689;51.644;5.618;2022-08-25T01:19:41;24.20;81.90
48876;DHT22;34689;51.644;5.618;2022-08-25T01:22:06;24.20;82.00
48876;DHT22;34689;51.644;5.618;2022-08-25T01:25:02;24.20;81.80
48876;DHT22;34689;51.644;5.618;2022-08-25T01:27:29;24.20;81.80
48876;DHT22;34689;51.644;5.618;2022-08-25T01:29:55;24.20;81.90
48876;DHT22;34689;51.644;5.618;2022-08-25T01:32:22;24.10;81.90
48876;DHT22;34689;51.644;5.618;2022-08-25T01:34:48;24.10;81.90
48876;DHT22;34689;51.644;5.618;2022-08-25T01:37:15;24.00;81.90
48876;DHT22;34689;51.644;5.618;2022-08-25T01:39:41;24.00;81.80
48876;DHT22;34689;51.644;5.618;2022-08-25T01:44:43;24.00;81.80
48876;DHT22;34689;51.644;5.618;2022-08-25T01:47:13;23.90;81.80
48876;DHT22;34689;51.644;5.618;2022-08-25T01:49:39;23.90;81.80
48876;DHT22;34689;51.644;5.618;2022-08-25T01:52:29;23.90;81.80
48876;DHT22;34689;51.644;5.618;2022-08-25T01:54:56;23.90;81.70
48876;DHT22;34689;51.644;5.618;2022-08-25T01:57:22;23.80;81.70
48876;DHT22;34689;51.644;5.618;2022-08-25T01:59:50;23.80;81.60
48876;DHT22;34689;51.644;5.618;2022-08-25T02:02:16;23.80;81.60
48876;DHT22;34689;51.644;5.618;2022-08-25T02:04:42;23.80;81.50
48876;DHT22;34689;51.644;5.618;2022-08-25T02:07:08;23.70;81.40
48876;DHT22;34689;51.644;5.618;2022-08-25T02:09:34;23.70;81.40
48876;DHT22;34689;51.644;5.618;2022-08-25T02:12:00;23.70;81.40
48876;DHT22;34689;51.644;5.618;2022-08-25T02:14:28;23.70;81.30
48876;DHT22;34689;51.644;5.618;2022-08-25T02:16:54;23.70;81.30
48876;DHT22;34689;51.644;5.618;2022-08-25T02:19:22;23.60;81.30
48876;DHT22;34689;51.644;5.618;2022-08-25T02:21:49;23.60;82.00
48876;DHT22;34689;51.644;5.618;2022-08-25T02:24:15;23.50;81.40
48876;DHT22;34689;51.644;5.618;2022-08-25T02:26:41;23.50;81.50
48876;DHT22;34689;51.644;5.618;2022-08-25T02:29:07;23.50;81.40
48876;DHT22;34689;51.644;5.618;2022-08-25T02:31:34;23.50;81.40
48876;DHT22;34689;51.644;5.618;2022-08-25T02:34:00;23.40;81.30
48876;DHT22;34689;51.644;5.618;2022-08-25T02:36:26;23.40;81.30
48876;DHT22;34689;51.644;5.618;2022-08-25T02:38:52;23.40;81.30
48876;DHT22;34689;51.644;5.618;2022-08-25T02:41:22;23.30;81.20
48876;DHT22;34689;51.644;5.618;2022-08-25T02:43:48;23.30;81.20
48876;DHT22;34689;51.644;5.618;2022-08-25T02:46:16;23.30;81.10
48876;DHT22;34689;51.644;5.618;2022-08-25T02:48:44;23.30;81.00
48876;DHT22;34689;51.644;5.618;2022-08-25T02:51:10;23.30;81.00
48876;DHT22;34689;51.644;5.618;2022-08-25T02:53:37;23.30;80.90
48876;DHT22;34689;51.644;5.618;2022-08-25T02:56:08;23.30;80.90
48876;DHT22;34689;51.644;5.618;2022-08-25T02:58:35;23.20;80.80
48876;DHT22;34689;51.644;5.618;2022-08-25T03:01:05;23.20;80.80
48876;DHT22;34689;51.644;5.618;2022-08-25T03:03:32;23.20;80.80
48876;DHT22;34689;51.644;5.618;2022-08-25T03:05:58;23.20;80.80
48876;DHT22;34689;51.644;5.618;2022-08-25T03:08:24;23.20;80.70
48876;DHT22;34689;51.644;5.618;2022-08-25T03:10:51;23.10;80.70
48876;DHT22;34689;51.644;5.618;2022-08-25T03:13:17;23.10;80.70
48876;DHT22;34689;51.644;5.618;2022-08-25T03:15:43;23.10;80.60
48876;DHT22;34689;51.644;5.618;2022-08-25T03:18:10;23.10;80.60
48876;DHT22;34689;51.644;5.618;2022-08-25T03:20:38;23.10;80.50
48876;DHT22;34689;51.644;5.618;2022-08-25T03:23:05;23.00;80.50
48876;DHT22;34689;51.644;5.618;2022-08-25T03:25:31;23.00;80.50
48876;DHT22;34689;51.644;5.618;2022-08-25T03:28:16;23.00;80.50
48876;DHT22;34689;51.644;5.618;2022-08-25T03:30:42;23.00;80.40
48876;DHT22;34689;51.644;5.618;2022-08-25T03:33:09;22.90;80.40
48876;DHT22;34689;51.644;5.618;2022-08-25T03:35:35;22.90;80.40
48876;DHT22;34689;51.644;5.618;2022-08-25T03:38:01;22.90;80.60
48876;DHT22;34689;51.644;5.618;2022-08-25T03:40:27;22.80;80.50
48876;DHT22;34689;51.644;5.618;2022-08-25T03:42:53;22.80;80.40
48876;DHT22;34689;51.644;5.618;2022-08-25T03:45:22;22.80;80.30
48876;DHT22;34689;51.644;5.618;2022-08-25T03:47:48;22.80;80.40
48876;DHT22;34689;51.644;5.618;2022-08-25T03:50:15;22.70;80.30
48876;DHT22;34689;51.644;5.618;2022-08-25T03:52:44;22.70;80.30
48876;DHT22;34689;51.644;5.618;2022-08-25T03:55:14;22.70;80.30
48876;DHT22;34689;51.644;5.618;2022-08-25T03:57:40;22.60;80.30
48876;DHT22;34689;51.644;5.618;2022-08-25T04:00:08;22.70;80.30
48876;DHT22;34689;51.644;5.618;2022-08-25T04:02:34;22.60;80.30
48876;DHT22;34689;51.644;5.618;2022-08-25T04:05:00;22.60;80.20
48876;DHT22;34689;51.644;5.618;2022-08-25T04:07:26;22.60;80.20
48876;DHT22;34689;51.644;5.618;2022-08-25T04:09:53;22.60;80.20
48876;DHT22;34689;51.644;5.618;2022-08-25T04:12:20;22.60;80.20
48876;DHT22;34689;51.644;5.618;2022-08-25T04:14:48;22.50;80.00
48876;DHT22;34689;51.644;5.618;2022-08-25T04:17:14;22.50;80.10
48876;DHT22;34689;51.644;5.618;2022-08-25T04:19:40;22.50;80.00
48876;DHT22;34689;51.644;5.618;2022-08-25T04:22:05;22.40;80.00
48876;DHT22;34689;51.644;5.618;2022-08-25T04:24:31;22.40;80.00
48876;DHT22;34689;51.644;5.618;2022-08-25T04:26:57;22.40;79.90
48876;DHT22;34689;51.644;5.618;2022-08-25T04:29:25;22.40;79.80
48876;DHT22;34689;51.644;5.618;2022-08-25T04:31:52;22.40;79.70
48876;DHT22;34689;51.644;5.618;2022-08-25T04:34:21;22.30;79.70
48876;DHT22;34689;51.644;5.618;2022-08-25T04:36:47;22.30;79.80
48876;DHT22;34689;51.644;5.618;2022-08-25T04:39:15;22.30;79.70
48876;DHT22;34689;51.644;5.618;2022-08-25T04:41:41;22.20;79.70
48876;DHT22;34689;51.644;5.618;2022-08-25T04:44:07;22.30;79.70
48876;DHT22;34689;51.644;5.618;2022-08-25T04:46:33;22.30;79.70
48876;DHT22;34689;51.644;5.618;2022-08-25T04:49:02;22.20;79.60
48876;DHT22;34689;51.644;5.618;2022-08-25T04:51:31;22.20;79.70
48876;DHT22;34689;51.644;5.618;2022-08-25T04:53:59;22.20;79.70
48876;DHT22;34689;51.644;5.618;2022-08-25T04:56:27;22.20;79.60
48876;DHT22;34689;51.644;5.618;2022-08-25T04:58:54;22.20;79.60
48876;DHT22;34689;51.644;5.618;2022-08-25T05:01:22;22.10;79.50
48876;DHT22;34689;51.644;5.618;2022-08-25T05:03:55;22.20;79.60
48876;DHT22;34689;51.644;5.618;2022-08-25T05:06:21;22.10;79.50
48876;DHT22;34689;51.644;5.618;2022-08-25T05:08:47;22.10;79.40
48876;DHT22;34689;51.644;5.618;2022-08-25T05:11:14;22.10;79.30
48876;DHT22;34689;51.644;5.618;2022-08-25T05:13:43;22.10;79.40
48876;DHT22;34689;51.644;5.618;2022-08-25T05:16:09;22.10;79.50
48876;DHT22;34689;51.644;5.618;2022-08-25T05:18:37;22.10;79.50
48876;DHT22;34689;51.644;5.618;2022-08-25T05:21:10;22.10;79.60
48876;DHT22;34689;51.644;5.618;2022-08-25T05:23:36;22.10;79.60
48876;DHT22;34689;51.644;5.618;2022-08-25T05:26:08;22.10;79.50
48876;DHT22;34689;51.644;5.618;2022-08-25T05:28:35;22.10;79.60
48876;DHT22;34689;51.644;5.618;2022-08-25T05:31:02;22.10;79.70
48876;DHT22;34689;51.644;5.618;2022-08-25T05:33:29;22.10;79.70
48876;DHT22;34689;51.644;5.618;2022-08-25T05:35:55;22.10;79.70
48876;DHT22;34689;51.644;5.618;2022-08-25T05:38:21;22.10;79.70
48876;DHT22;34689;51.644;5.618;2022-08-25T05:40:53;22.10;79.60
48876;DHT22;34689;51.644;5.618;2022-08-25T05:43:21;22.10;79.70
48876;DHT22;34689;51.644;5.618;2022-08-25T05:45:46;22.10;79.70
48876;DHT22;34689;51.644;5.618;2022-08-25T05:48:12;22.10;79.50
48876;DHT22;34689;51.644;5.618;2022-08-25T05:50:38;22.10;79.60
48876;DHT22;34689;51.644;5.618;2022-08-25T05:53:03;22.10;79.50
48876;DHT22;34689;51.644;5.618;2022-08-25T05:55:29;22.20;79.40
48876;DHT22;34689;51.644;5.618;2022-08-25T05:57:55;22.20;79.40
48876;DHT22;34689;51.644;5.618;2022-08-25T06:00:21;22.30;79.40
48876;DHT22;34689;51.644;5.618;2022-08-25T06:02:46;22.30;79.40
48876;DHT22;34689;51.644;5.618;2022-08-25T06:05:20;22.30;79.20
48876;DHT22;34689;51.644;5.618;2022-08-25T06:07:47;22.30;79.20
48876;DHT22;34689;51.644;5.618;2022-08-25T06:10:14;22.40;79.20
48876;DHT22;34689;51.644;5.618;2022-08-25T06:12:42;22.40;79.20
48876;DHT22;34689;51.644;5.618;2022-08-25T06:15:16;22.40;79.00
48876;DHT22;34689;51.644;5.618;2022-08-25T06:17:42;22.50;79.00
48876;DHT22;34689;51.644;5.618;2022-08-25T06:20:12;22.50;78.80
48876;DHT22;34689;51.644;5.618;2022-08-25T06:22:38;22.50;78.70
48876;DHT22;34689;51.644;5.618;2022-08-25T06:25:05;22.60;78.70
48876;DHT22;34689;51.644;5.618;2022-08-25T06:27:32;22.60;78.60
48876;DHT22;34689;51.644;5.618;2022-08-25T06:29:58;22.60;78.50
48876;DHT22;34689;51.644;5.618;2022-08-25T06:32:33;22.70;78.40
48876;DHT22;34689;51.644;5.618;2022-08-25T06:35:01;22.70;78.30
48876;DHT22;34689;51.644;5.618;2022-08-25T06:37:27;22.70;78.20
48876;DHT22;34689;51.644;5.618;2022-08-25T06:39:52;22.80;78.30
48876;DHT22;34689;51.644;5.618;2022-08-25T06:42:18;22.80;78.30
48876;DHT22;34689;51.644;5.618;2022-08-25T06:44:44;22.80;78.30
48876;DHT22;34689;51.644;5.618;2022-08-25T06:47:10;22.90;78.30
48876;DHT22;34689;51.644;5.618;2022-08-25T06:49:35;22.90;78.30
48876;DHT22;34689;51.644;5.618;2022-08-25T06:52:02;23.00;78.40
48876;DHT22;34689;51.644;5.618;2022-08-25T06:54:27;23.00;78.50
48876;DHT22;34689;51.644;5.618;2022-08-25T06:56:53;23.00;78.40
48876;DHT22;34689;51.644;5.618;2022-08-25T06:59:19;23.00;78.20
48876;DHT22;34689;51.644;5.618;2022-08-25T07:01:45;23.00;78.40
48876;DHT22;34689;51.644;5.618;2022-08-25T07:04:11;23.10;78.40
48876;DHT22;34689;51.644;5.618;2022-08-25T07:06:36;23.10;78.40
48876;DHT22;34689;51.644;5.618;2022-08-25T07:09:07;23.20;78.50
48876;DHT22;34689;51.644;5.618;2022-08-25T07:11:32;23.20;78.80
48876;DHT22;34689;51.644;5.618;2022-08-25T07:14:03;23.20;79.00
48876;DHT22;34689;51.644;5.618;2022-08-25T07:16:30;23.30;78.90
48876;DHT22;34689;51.644;5.618;2022-08-25T07:18:56;23.30;78.90
48876;DHT22;34689;51.644;5.618;2022-08-25T07:21:24;23.40;78.90
48876;DHT22;34689;51.644;5.618;2022-08-25T07:23:51;23.40;78.80
48876;DHT22;34689;51.644;5.618;2022-08-25T07:26:21;23.50;79.00
48876;DHT22;34689;51.644;5.618;2022-08-25T07:28:47;23.50;78.70
48876;DHT22;34689;51.644;5.618;2022-08-25T07:31:13;23.60;78.90
48876;DHT22;34689;51.644;5.618;2022-08-25T07:33:39;23.60;78.80
48876;DHT22;34689;51.644;5.618;2022-08-25T07:36:25;23.70;78.90
48876;DHT22;34689;51.644;5.618;2022-08-25T07:38:51;23.70;78.90
48876;DHT22;34689;51.644;5.618;2022-08-25T07:41:16;23.70;78.60
48876;DHT22;34689;51.644;5.618;2022-08-25T07:43:44;23.80;78.50
48876;DHT22;34689;51.644;5.618;2022-08-25T07:46:12;23.90;78.80
48876;DHT22;34689;51.644;5.618;2022-08-25T07:48:38;23.90;78.80
48876;DHT22;34689;51.644;5.618;2022-08-25T07:51:08;23.90;78.30
48876;DHT22;34689;51.644;5.618;2022-08-25T07:53:34;24.00;78.30
48876;DHT22;34689;51.644;5.618;2022-08-25T07:56:02;24.00;78.40
48876;DHT22;34689;51.644;5.618;2022-08-25T07:58:28;24.10;78.40
48876;DHT22;34689;51.644;5.618;2022-08-25T08:00:53;24.10;78.10
48876;DHT22;34689;51.644;5.618;2022-08-25T08:03:19;24.20;78.00
48876;DHT22;34689;51.644;5.618;2022-08-25T08:05:46;24.20;77.60
48876;DHT22;34689;51.644;5.618;2022-08-25T08:08:12;24.30;77.40
48876;DHT22;34689;51.644;5.618;2022-08-25T08:10:43;24.30;77.00
48876;DHT22;34689;51.644;5.618;2022-08-25T08:13:09;24.40;77.20
48876;DHT22;34689;51.644;5.618;2022-08-25T08:15:36;24.40;77.40
48876;DHT22;34689;51.644;5.618;2022-08-25T08:18:03;24.50;77.30
48876;DHT22;34689;51.644;5.618;2022-08-25T08:20:29;24.50;77.30
48876;DHT22;34689;51.644;5.618;2022-08-25T08:22:58;24.60;77.50
48876;DHT22;34689;51.644;5.618;2022-08-25T08:25:24;24.60;77.60
48876;DHT22;34689;51.644;5.618;2022-08-25T08:27:50;24.60;77.40
48876;DHT22;34689;51.644;5.618;2022-08-25T08:30:16;24.70;77.40
48876;DHT22;34689;51.644;5.618;2022-08-25T08:32:41;24.70;77.30
48876;DHT22;34689;51.644;5.618;2022-08-25T08:35:08;24.70;77.10
48876;DHT22;34689;51.644;5.618;2022-08-25T08:37:34;24.80;77.50
48876;DHT22;34689;51.644;5.618;2022-08-25T08:40:03;24.90;77.60
48876;DHT22;34689;51.644;5.618;2022-08-25T08:45:15;24.90;77.50
48876;DHT22;34689;51.644;5.618;2022-08-25T08:55:42;25.10;76.90
48876;DHT22;34689;51.644;5.618;2022-08-25T08:58:22;25.20;76.60
48876;DHT22;34689;51.644;5.618;2022-08-25T09:00:53;25.30;76.10
48876;DHT22;34689;51.644;5.618;2022-08-25T09:03:31;25.40;76.00
48876;DHT22;34689;51.644;5.618;2022-08-25T09:06:01;25.50;76.40
48876;DHT22;34689;51.644;5.618;2022-08-25T09:08:28;25.60;75.70
48876;DHT22;34689;51.644;5.618;2022-08-25T09:13:30;25.70;75.40
48876;DHT22;34689;51.644;5.618;2022-08-25T09:19:05;25.90;74.90
48876;DHT22;34689;51.644;5.618;2022-08-25T09:21:39;26.00;74.80
48876;DHT22;34689;51.644;5.618;2022-08-25T09:32:16;26.40;74.00
48876;DHT22;34689;51.644;5.618;2022-08-25T09:34:42;26.50;73.70
48876;DHT22;34689;51.644;5.618;2022-08-25T09:37:09;26.50;73.40
48876;DHT22;34689;51.644;5.618;2022-08-25T09:39:34;26.70;73.50
48876;DHT22;34689;51.644;5.618;2022-08-25T09:42:00;26.80;73.40
48876;DHT22;34689;51.644;5.618;2022-08-25T09:44:41;26.90;72.90
48876;DHT22;34689;51.644;5.618;2022-08-25T09:49:44;27.10;71.90
48876;DHT22;34689;51.644;5.618;2022-08-25T09:52:22;27.30;71.90
48876;DHT22;34689;51.644;5.618;2022-08-25T09:54:49;27.50;71.80
48876;DHT22;34689;51.644;5.618;2022-08-25T09:57:29;27.70;71.40
48876;DHT22;34689;51.644;5.618;2022-08-25T09:59:56;28.40;70.70
48876;DHT22;34689;51.644;5.618;2022-08-25T10:02:27;30.10;68.30
48876;DHT22;34689;51.644;5.618;2022-08-25T10:04:53;32.50;63.60
48876;DHT22;34689;51.644;5.618;2022-08-25T10:07:20;34.30;60.60
48876;DHT22;34689;51.644;5.618;2022-08-25T10:09:53;35.50;58.40
48876;DHT22;34689;51.644;5.618;2022-08-25T10:12:40;36.20;57.00
48876;DHT22;34689;51.644;5.618;2022-08-25T10:15:31;37.00;55.00
48876;DHT22;34689;51.644;5.618;2022-08-25T10:18:27;36.90;54.20
48876;DHT22;34689;51.644;5.618;2022-08-25T10:21:19;37.30;53.70
48876;DHT22;34689;51.644;5.618;2022-08-25T10:23:51;37.80;52.00
48876;DHT22;34689;51.644;5.618;2022-08-25T10:26:56;38.20;52.50
48876;DHT22;34689;51.644;5.618;2022-08-25T10:29:40;38.00;52.00
48876;DHT22;34689;51.644;5.618;2022-08-25T10:32:17;37.60;53.00
48876;DHT22;34689;51.644;5.618;2022-08-25T10:34:57;36.80;53.10
48876;DHT22;34689;51.644;5.618;2022-08-25T10:40:24;34.90;55.20
48876;DHT22;34689;51.644;5.618;2022-08-25T10:45:21;34.10;57.90
48876;DHT22;34689;51.644;5.618;2022-08-25T10:48:31;33.90;58.10
48876;DHT22;34689;51.644;5.618;2022-08-25T10:56:19;33.40;57.90
48876;DHT22;34689;51.644;5.618;2022-08-25T11:09:09;32.90;56.60
48876;DHT22;34689;51.644;5.618;2022-08-25T11:11:56;32.80;56.80
48876;DHT22;34689;51.644;5.618;2022-08-25T11:14:25;32.80;56.10
48876;DHT22;34689;51.644;5.618;2022-08-25T11:17:15;32.70;55.90
48876;DHT22;34689;51.644;5.618;2022-08-25T11:19:47;32.50;55.60
48876;DHT22;34689;51.644;5.618;2022-08-25T11:22:40;32.40;56.80
48876;DHT22;34689;51.644;5.618;2022-08-25T11:25:16;32.40;55.20
48876;DHT22;34689;51.644;5.618;2022-08-25T11:27:54;32.20;55.80
48876;DHT22;34689;51.644;5.618;2022-08-25T11:30:21;31.90;56.20
48876;DHT22;34689;51.644;5.618;2022-08-25T11:32:50;31.80;56.10
48876;DHT22;34689;51.644;5.618;2022-08-25T11:35:19;31.60;56.10
48876;DHT22;34689;51.644;5.618;2022-08-25T11:43:47;31.20;55.50
48876;DHT22;34689;51.644;5.618;2022-08-25T11:51:47;31.00;54.90
48876;DHT22;34689;51.644;5.618;2022-08-25T11:54:29;31.00;55.10
48876;DHT22;34689;51.644;5.618;2022-08-25T11:57:03;31.00;54.60
48876;DHT22;34689;51.644;5.618;2022-08-25T12:02:34;31.10;54.00
48876;DHT22;34689;51.644;5.618;2022-08-25T12:05:02;31.20;55.00
48876;DHT22;34689;51.644;5.618;2022-08-25T12:11:02;31.40;54.70
48876;DHT22;34689;51.644;5.618;2022-08-25T12:13:50;31.40;53.00
48876;DHT22;34689;51.644;5.618;2022-08-25T12:19:26;31.50;53.20
48876;DHT22;34689;51.644;5.618;2022-08-25T12:21:55;31.60;52.60
48876;DHT22;34689;51.644;5.618;2022-08-25T12:29:45;31.90;53.20
48876;DHT22;34689;51.644;5.618;2022-08-25T12:32:36;31.90;53.20
48876;DHT22;34689;51.644;5.618;2022-08-25T12:35:21;32.10;53.50
48876;DHT22;34689;51.644;5.618;2022-08-25T12:38:02;32.20;53.30
48876;DHT22;34689;51.644;5.618;2022-08-25T12:43:03;32.20;52.40
48876;DHT22;34689;51.644;5.618;2022-08-25T12:45:36;32.20;52.40
48876;DHT22;34689;51.644;5.618;2022-08-25T12:51:03;32.30;51.00
48876;DHT22;34689;51.644;5.618;2022-08-25T12:53:39;32.40;52.10
48876;DHT22;34689;51.644;5.618;2022-08-25T12:56:30;32.50;51.90
48876;DHT22;34689;51.644;5.618;2022-08-25T13:15:31;32.80;51.70
48876;DHT22;34689;51.644;5.618;2022-08-25T13:20:41;32.90;51.50
48876;DHT22;34689;51.644;5.618;2022-08-25T13:23:07;33.00;51.80
48876;DHT22;34689;51.644;5.618;2022-08-25T13:25:34;33.10;51.60
48876;DHT22;34689;51.644;5.618;2022-08-25T13:28:04;33.10;51.50
48876;DHT22;34689;51.644;5.618;2022-08-25T13:30:33;33.20;51.60
48876;DHT22;34689;51.644;5.618;2022-08-25T13:33:17;33.20;51.20
48876;DHT22;34689;51.644;5.618;2022-08-25T13:35:51;33.30;50.80
48876;DHT22;34689;51.644;5.618;2022-08-25T13:38:37;33.40;50.90
48876;DHT22;34689;51.644;5.618;2022-08-25T13:41:04;33.50;51.20
48876;DHT22;34689;51.644;5.618;2022-08-25T13:43:30;33.50;50.70
48876;DHT22;34689;51.644;5.618;2022-08-25T13:45:55;33.50;50.60
48876;DHT22;34689;51.644;5.618;2022-08-25T13:48:39;33.50;50.20
48876;DHT22;34689;51.644;5.618;2022-08-25T13:51:09;33.40;49.20
48876;DHT22;34689;51.644;5.618;2022-08-25T13:53:40;33.40;50.00
48876;DHT22;34689;51.644;5.618;2022-08-25T13:56:05;33.50;50.60
48876;DHT22;34689;51.644;5.618;2022-08-25T13:58:34;33.60;50.70
48876;DHT22;34689;51.644;5.618;2022-08-25T14:01:02;33.70;50.70
48876;DHT22;34689;51.644;5.618;2022-08-25T14:03:36;33.90;50.80
48876;DHT22;34689;51.644;5.618;2022-08-25T14:11:40;34.10;49.80
48876;DHT22;34689;51.644;5.618;2022-08-25T14:14:29;34.10;49.80
48876;DHT22;34689;51.644;5.618;2022-08-25T14:17:02;33.90;49.80
48876;DHT22;34689;51.644;5.618;2022-08-25T14:19:29;34.00;50.10
48876;DHT22;34689;51.644;5.618;2022-08-25T14:21:56;34.00;50.30
48876;DHT22;34689;51.644;5.618;2022-08-25T14:24:24;33.90;50.00
48876;DHT22;34689;51.644;5.618;2022-08-25T14:26:52;33.80;49.70
48876;DHT22;34689;51.644;5.618;2022-08-25T14:29:17;33.70;49.90
48876;DHT22;34689;51.644;5.618;2022-08-25T14:31:44;33.60;49.70
48876;DHT22;34689;51.644;5.618;2022-08-25T14:34:21;33.60;50.00
48876;DHT22;34689;51.644;5.618;2022-08-25T14:36:48;33.50;49.50
48876;DHT22;34689;51.644;5.618;2022-08-25T14:39:14;33.50;50.10
48876;DHT22;34689;51.644;5.618;2022-08-25T14:41:42;33.40;50.00
48876;DHT22;34689;51.644;5.618;2022-08-25T14:44:09;33.30;50.10
48876;DHT22;34689;51.644;5.618;2022-08-25T14:46:37;33.30;50.00
48876;DHT22;34689;51.644;5.618;2022-08-25T14:49:07;33.30;49.70
48876;DHT22;34689;51.644;5.618;2022-08-25T14:51:35;33.20;49.70
48876;DHT22;34689;51.644;5.618;2022-08-25T14:54:05;33.10;49.80
48876;DHT22;34689;51.644;5.618;2022-08-25T14:56:32;33.10;49.70
48876;DHT22;34689;51.644;5.618;2022-08-25T14:58:58;33.00;49.80
48876;DHT22;34689;51.644;5.618;2022-08-25T15:01:25;33.00;49.80
48876;DHT22;34689;51.644;5.618;2022-08-25T15:03:54;33.00;49.70
48876;DHT22;34689;51.644;5.618;2022-08-25T15:06:20;32.90;49.80
48876;DHT22;34689;51.644;5.618;2022-08-25T15:08:46;32.90;49.90
48876;DHT22;34689;51.644;5.618;2022-08-25T15:11:30;33.00;49.60
48876;DHT22;34689;51.644;5.618;2022-08-25T15:13:56;32.90;49.80
48876;DHT22;34689;51.644;5.618;2022-08-25T15:16:31;32.80;49.70
48876;DHT22;34689;51.644;5.618;2022-08-25T15:18:58;32.70;49.90
48876;DHT22;34689;51.644;5.618;2022-08-25T15:21:24;32.70;50.20
48876;DHT22;34689;51.644;5.618;2022-08-25T15:23:50;32.70;49.90
48876;DHT22;34689;51.644;5.618;2022-08-25T15:26:16;32.60;50.10
48876;DHT22;34689;51.644;5.618;2022-08-25T15:28:45;32.60;50.30
48876;DHT22;34689;51.644;5.618;2022-08-25T15:31:14;32.50;50.20
48876;DHT22;34689;51.644;5.618;2022-08-25T15:33:40;32.50;50.80
48876;DHT22;34689;51.644;5.618;2022-08-25T15:36:14;32.50;50.70
48876;DHT22;34689;51.644;5.618;2022-08-25T15:38:42;32.50;50.40
48876;DHT22;34689;51.644;5.618;2022-08-25T15:41:11;32.50;50.50
48876;DHT22;34689;51.644;5.618;2022-08-25T15:43:37;32.50;50.60
48876;DHT22;34689;51.644;5.618;2022-08-25T15:46:04;32.50;50.30
48876;DHT22;34689;51.644;5.618;2022-08-25T15:48:31;32.40;50.00
48876;DHT22;34689;51.644;5.618;2022-08-25T15:50:57;32.40;50.10
48876;DHT22;34689;51.644;5.618;2022-08-25T15:53:26;32.30;50.10
48876;DHT22;34689;51.644;5.618;2022-08-25T15:55:53;32.30;50.30
48876;DHT22;34689;51.644;5.618;2022-08-25T15:58:19;32.20;50.30
48876;DHT22;34689;51.644;5.618;2022-08-25T16:00:45;32.20;50.30
48876;DHT22;34689;51.644;5.618;2022-08-25T16:03:12;32.10;50.30
48876;DHT22;34689;51.644;5.618;2022-08-25T16:05:39;32.10;50.20
48876;DHT22;34689;51.644;5.618;2022-08-25T16:08:05;32.10;50.30
48876;DHT22;34689;51.644;5.618;2022-08-25T16:10:39;32.10;50.40
48876;DHT22;34689;51.644;5.618;2022-08-25T16:13:08;32.00;50.30
48876;DHT22;34689;51.644;5.618;2022-08-25T16:15:34;32.00;50.30
48876;DHT22;34689;51.644;5.618;2022-08-25T16:18:00;31.90;50.30
48876;DHT22;34689;51.644;5.618;2022-08-25T16:20:28;31.90;50.50
48876;DHT22;34689;51.644;5.618;2022-08-25T16:22:54;31.80;50.20
48876;DHT22;34689;51.644;5.618;2022-08-25T16:25:20;31.80;50.20
48876;DHT22;34689;51.644;5.618;2022-08-25T16:27:46;31.80;50.20
48876;DHT22;34689;51.644;5.618;2022-08-25T16:30:12;31.80;49.80
48876;DHT22;34689;51.644;5.618;2022-08-25T16:32:39;31.70;50.00
48876;DHT22;34689;51.644;5.618;2022-08-25T16:35:05;31.70;49.60
48876;DHT22;34689;51.644;5.618;2022-08-25T16:37:32;31.70;49.50
48876;DHT22;34689;51.644;5.618;2022-08-25T16:39:58;31.60;49.70
48876;DHT22;34689;51.644;5.618;2022-08-25T16:42:24;31.60;49.90
48876;DHT22;34689;51.644;5.618;2022-08-25T16:44:50;31.50;49.80
48876;DHT22;34689;51.644;5.618;2022-08-25T16:47:16;31.50;49.90
48876;DHT22;34689;51.644;5.618;2022-08-25T16:49:42;31.40;50.20
48876;DHT22;34689;51.644;5.618;2022-08-25T16:52:07;31.40;50.50
48876;DHT22;34689;51.644;5.618;2022-08-25T16:54:53;31.30;50.30
48876;DHT22;34689;51.644;5.618;2022-08-25T16:57:43;31.30;50.70
48876;DHT22;34689;51.644;5.618;2022-08-25T17:00:12;31.20;51.20
48876;DHT22;34689;51.644;5.618;2022-08-25T17:02:39;31.20;51.70
48876;DHT22;34689;51.644;5.618;2022-08-25T17:05:07;31.10;52.00
48876;DHT22;34689;51.644;5.618;2022-08-25T17:07:36;31.00;52.30
48876;DHT22;34689;51.644;5.618;2022-08-25T17:10:03;31.00;52.50
48876;DHT22;34689;51.644;5.618;2022-08-25T17:12:29;30.90;52.70
48876;DHT22;34689;51.644;5.618;2022-08-25T17:14:54;30.90;52.40
48876;DHT22;34689;51.644;5.618;2022-08-25T17:17:20;30.90;53.00
48876;DHT22;34689;51.644;5.618;2022-08-25T17:19:46;30.70;53.40
48876;DHT22;34689;51.644;5.618;2022-08-25T17:22:12;30.70;53.50
48876;DHT22;34689;51.644;5.618;2022-08-25T17:24:41;30.70;53.90
48876;DHT22;34689;51.644;5.618;2022-08-25T17:27:08;30.60;54.30
48876;DHT22;34689;51.644;5.618;2022-08-25T17:29:33;30.50;54.60
48876;DHT22;34689;51.644;5.618;2022-08-25T17:31:59;30.50;55.00